Time;durP1;ratioP1;P1;durP2;ratioP2;P2;SDS_P1;SDS_P2;PMS_P1;PMS_P2;Temp;Humidity;BMP_temperature;BMP_pressure;BME280_temperature;BME280_humidity;BME280_pressure;Samples;Min_cycle;Max_cycle;Signal;HPM_P1;HPM_P2
2023/05/11 00:00:43;;;;;;;;;;;;;;;;;;5035562;28;19913;-17
2023/05/11 00:03:09;;;;;;;;;;;;;;;;;;5035014;28;19917;-17
2023/05/11 00:05:35;;;;;;;;;;;;;;;;;;5035344;28;19920;-17
2023/05/11 00:08:00;;;;;;;;;;;;;;;;;;5035195;28;19961;-17
2023/05/11 00:10:26;;;;;;;;;;;;;;;;;;5034189;28;19990;-17
2023/05/11 00:12:52;;;;;;;;;;;;;;;;;;5035112;28;19909;-17
2023/05/11 00:15:18;;;;;;;;;;;;;;;;;;5035094;28;20320;-17
2023/05/11 00:17:44;;;;;;;;;;;;;;;;;;5035306;28;20352;-17
2023/05/11 00:20:10;;;;;;;;;;;;;;;;;;5035038;28;19944;-17
2023/05/11 00:22:36;;;;;;;;;;;;;;;;;;5034906;28;20340;-17
2023/05/11 00:25:02;;;;;;;;;;;;;;;;;;5034978;28;20317;-17
2023/05/11 00:27:28;;;;;;;;;;;;;;;;;;5033911;28;19939;-17
2023/05/11 00:29:54;;;;;;;;;;;;;;;;;;5035158;28;19909;-17
2023/05/11 00:32:20;;;;;;;;;;;;;;;;;;5034809;28;19909;-17
2023/05/11 00:34:46;;;;;;;;;;;;;;;;;;5034687;28;19917;-27
2023/05/11 00:37:12;;;;;;;;;;;;;;;;;;5035042;28;19909;-17
2023/05/11 00:39:39;;;;;;;;;;;;;;;;;;5034759;28;19909;-17
2023/05/11 00:42:05;;;;;;;;;;;;;;;;;;5034670;28;20038;-17
2023/05/11 00:44:31;;;;;;;;;;;;;;;;;;5034981;28;19913;-17
2023/05/11 00:46:57;;;;;;;;;;;;;;;;;;5034720;28;19917;-17
2023/05/11 00:49:23;;;;;;;;;;;;;;;;;;5034600;28;20256;-16
2023/05/11 00:51:49;;;;;;;;;;;;;;;;;;5034841;28;19931;-17
2023/05/11 00:54:15;;;;;;;;;;;;;;;;;;5034868;28;19909;-17
2023/05/11 00:56:41;;;;;;;;;;;;;;;;;;5034610;28;20007;-17
2023/05/11 00:59:07;;;;;;;;;;;;;;;;;;5034546;28;19909;-17
2023/05/11 01:01:34;;;;;;;;;;;;;;;;;;5034560;28;19909;-17
2023/05/11 01:04:00;;;;;;;;;;;;;;;;;;5034481;28;19932;-17
2023/05/11 01:06:26;;;;;;;;;;;;;;;;;;5034536;28;19910;-17
2023/05/11 01:08:52;;;;;;;;;;;;;;;;;;5034438;28;19960;-17
2023/05/11 01:11:18;;;;;;;;;;;;;;;;;;5034492;28;20062;-17
2023/05/11 01:13:44;;;;;;;;;;;;;;;;;;5034371;28;19929;-17
2023/05/11 01:16:11;;;;;;;;;;;;;;;;;;5034422;28;19915;-17
2023/05/11 01:18:37;;;;;;;;;;;;;;;;;;5034468;28;19909;-17
2023/05/11 01:21:02;;;;;;;;;;;;;;;;;;5034954;28;19920;-17
2023/05/11 01:23:28;;;;;;;;;;;;;;;;;;5034566;28;19909;-17
2023/05/11 01:25:54;;;;;;;;;;;;;;;;;;5034418;28;19909;-17
2023/05/11 01:28:20;;;;;;;;;;;;;;;;;;5034193;28;19913;-17
2023/05/11 01:30:46;;;;;;;;;;;;;;;;;;5034811;28;20008;-17
2023/05/11 01:33:12;;;;;;;;;;;;;;;;;;5034224;28;19960;-17
2023/05/11 01:35:38;;;;;;;;;;;;;;;;;;5034276;28;19917;-17
2023/05/11 01:38:04;;;;;;;;;;;;;;;;;;5034550;28;19945;-17
2023/05/11 01:40:30;;;;;;;;;;;;;;;;;;5034170;28;19909;-17
2023/05/11 01:42:56;;;;;;;;;;;;;;;;;;5034180;28;19913;-17
2023/05/11 01:45:22;;;;;;;;;;;;;;;;;;5037148;28;19913;-17
2023/05/11 01:47:48;;;;;;;;;;;;;;;;;;5038063;28;19991;-17
2023/05/11 01:50:14;;;;;;;;;;;;;;;;;;5038069;28;20299;-17
2023/05/11 01:52:40;;;;;;;;;;;;;;;;;;5037731;28;19932;-16
2023/05/11 01:55:06;;;;;;;;;;;;;;;;;;5037755;28;19909;-17
2023/05/11 01:57:32;;;;;;;;;;;;;;;;;;5037980;28;19917;-17
2023/05/11 01:59:58;;;;;;;;;;;;;;;;;;5037664;28;19967;-17
2023/05/11 02:02:24;;;;;;;;;;;;;;;;;;5037533;28;19967;-17
2023/05/11 02:04:50;;;;;;;;;;;;;;;;;;5037394;28;19921;-17
2023/05/11 02:07:16;;;;;;;;;;;;;;;;;;5037446;28;19913;-17
2023/05/11 02:09:42;;;;;;;;;;;;;;;;;;5037423;28;19913;-17
2023/05/11 02:12:08;;;;;;;;;;;;;;;;;;5037632;28;19909;-17
2023/05/11 02:14:33;;;;;;;;;;;;;;;;;;5037586;28;19909;-16
2023/05/11 02:16:59;;;;;;;;;;;;;;;;;;5037625;28;19917;-17
2023/05/11 02:19:25;;;;;;;;;;;;;;;;;;5036333;28;19913;-16
2023/05/11 02:21:51;;;;;;;;;;;;;;;;;;5037444;28;20348;-16
2023/05/11 02:24:17;;;;;;;;;;;;;;;;;;5037452;28;19976;-17
2023/05/11 02:26:43;;;;;;;;;;;;;;;;;;5037093;28;19909;-17
2023/05/11 02:29:09;;;;;;;;;;;;;;;;;;5037309;28;19966;-17
2023/05/11 02:31:35;;;;;;;;;;;;;;;;;;5037011;28;19913;-17
2023/05/11 02:34:01;;;;;;;;;;;;;;;;;;5036981;28;19909;-17
2023/05/11 02:36:27;;;;;;;;;;;;;;;;;;5037003;28;19916;-17
2023/05/11 02:38:53;;;;;;;;;;;;;;;;;;5037215;28;19920;-17
2023/05/11 02:41:19;;;;;;;;;;;;;;;;;;5037094;28;19963;-17
2023/05/11 02:43:45;;;;;;;;;;;;;;;;;;5036726;28;19949;-17
2023/05/11 02:46:11;;;;;;;;;;;;;;;;;;5036817;28;19983;-17
2023/05/11 02:48:37;;;;;;;;;;;;;;;;;;5036660;28;19913;-17
2023/05/11 02:51:03;;;;;;;;;;;;;;;;;;5037410;28;20340;-17
2023/05/11 02:53:30;;;;;;;;;;;;;;;;;;5036630;28;19920;-17
2023/05/11 02:55:56;;;;;;;;;;;;;;;;;;5036141;28;20252;-17
2023/05/11 02:58:22;;;;;;;;;;;;;;;;;;5036600;28;19916;-16
2023/05/11 03:00:47;;;;;;;;;;;;;;;;;;5036471;28;20302;-16
2023/05/11 03:03:13;;;;;;;;;;;;;;;;;;5036238;28;19917;-17
2023/05/11 03:05:39;;;;;;;;;;;;;;;;;;5035428;28;19909;-17
2023/05/11 03:08:05;;;;;;;;;;;;;;;;;;5037085;28;19917;-17
2023/05/11 03:10:32;;;;;;;;;;;;;;;;;;5036631;28;20019;-17
2023/05/11 03:12:58;;;;;;;;;;;;;;;;;;5036205;28;19917;-17
2023/05/11 03:15:24;;;;;;;;;;;;;;;;;;5036211;28;19917;-17
2023/05/11 03:17:50;;;;;;;;;;;;;;;;;;5037155;28;19920;-17
2023/05/11 03:20:15;;;;;;;;;;;;;;;;;;5036635;28;20259;-17
2023/05/11 03:22:41;;;;;;;;;;;;;;;;;;5036556;28;19948;-17
2023/05/11 03:25:07;;;;;;;;;;;;;;;;;;5036038;28;19936;-17
2023/05/11 03:27:33;;;;;;;;;;;;;;;;;;5036381;28;20386;-17
2023/05/11 03:29:59;;;;;;;;;;;;;;;;;;5035943;28;20339;-17
2023/05/11 03:32:25;;;;;;;;;;;;;;;;;;5035844;28;19919;-17
2023/05/11 03:34:51;;;;;;;;;;;;;;;;;;5035830;28;19913;-17
2023/05/11 03:37:17;;;;;;;;;;;;;;;;;;5035775;28;20021;-17
2023/05/11 03:39:43;;;;;;;;;;;;;;;;;;5035931;28;19909;-17
2023/05/11 03:42:09;;;;;;;;;;;;;;;;;;5035630;28;20050;-17
2023/05/11 03:44:35;;;;;;;;;;;;;;;;;;5035556;28;19959;-16
2023/05/11 03:47:01;;;;;;;;;;;;;;;;;;5035845;28;19909;-16
2023/05/11 03:49:27;;;;;;;;;;;;;;;;;;5036109;28;20217;-17
2023/05/11 03:51:53;;;;;;;;;;;;;;;;;;5035530;28;19916;-17
2023/05/11 03:54:19;;;;;;;;;;;;;;;;;;5035356;28;20348;-18
2023/05/11 03:56:45;;;;;;;;;;;;;;;;;;5035546;28;19920;-18
2023/05/11 03:59:11;;;;;;;;;;;;;;;;;;5035240;28;20333;-18
2023/05/11 04:04:12;;;;;;;;;;;;;;;;;;4133253;26;20031;-22
2023/05/11 04:06:38;;;;;;;;;;;;;;;;;;5034962;28;20004;-22
2023/05/11 04:09:05;;;;;;;;;;;;;;;;;;5034969;28;19917;-22
2023/05/11 04:11:30;;;;;;;;;;;;;;;;;;5034732;28;20402;-21
2023/05/11 04:13:56;;;;;;;;;;;;;;;;;;5034347;28;19913;-20
2023/05/11 04:16:22;;;;;;;;;;;;;;;;;;5034528;28;20354;-20
2023/05/11 04:18:48;;;;;;;;;;;;;;;;;;5034465;28;19933;-22
2023/05/11 04:21:15;;;;;;;;;;;;;;;;;;5034176;28;20332;-21
2023/05/11 04:23:40;;;;;;;;;;;;;;;;;;5034053;28;20336;-27
2023/05/11 04:26:06;;;;;;;;;;;;;;;;;;5034063;28;19909;-20
2023/05/11 04:28:32;;;;;;;;;;;;;;;;;;5032949;28;19913;-20
2023/05/11 04:30:58;;;;;;;;;;;;;;;;;;5033112;28;19909;-22
2023/05/11 04:33:24;;;;;;;;;;;;;;;;;;5033982;28;20259;-21
2023/05/11 04:35:50;;;;;;;;;;;;;;;;;;5034337;28;19976;-21
2023/05/11 04:38:16;;;;;;;;;;;;;;;;;;5034428;28;19909;-21
2023/05/11 04:40:42;;;;;;;;;;;;;;;;;;5034273;28;19932;-22
2023/05/11 04:43:08;;;;;;;;;;;;;;;;;;5034350;28;19916;-22
2023/05/11 04:45:34;;;;;;;;;;;;;;;;;;5034221;28;19918;-23
2023/05/11 04:48:00;;;;;;;;;;;;;;;;;;5034219;28;20001;-20
2023/05/11 04:50:26;;;;;;;;;;;;;;;;;;5034472;28;19909;-21
2023/05/11 04:52:52;;;;;;;;;;;;;;;;;;5034018;28;19916;-22
2023/05/11 04:55:18;;;;;;;;;;;;;;;;;;5034105;28;20348;-22
2023/05/11 04:57:44;;;;;;;;;;;;;;;;;;5032977;28;19924;-22
2023/05/11 05:00:10;;;;;;;;;;;;;;;;;;5034011;28;20004;-21
2023/05/11 05:02:36;;;;;;;;;;;;;;;;;;5033979;28;19909;-20
2023/05/11 05:05:02;;;;;;;;;;;;;;;;;;5034365;28;19909;-22
2023/05/11 05:07:27;;;;;;;;;;;;;;;;;;5033664;28;19909;-21
2023/05/11 05:09:53;;;;;;;;;;;;;;;;;;5033952;28;19966;-22
2023/05/11 05:12:19;;;;;;;;;;;;;;;;;;5032769;28;19910;-20
2023/05/11 05:14:45;;;;;;;;;;;;;;;;;;5034091;28;20338;-20
2023/05/11 05:17:11;;;;;;;;;;;;;;;;;;5032744;28;20007;-22
2023/05/11 05:19:37;;;;;;;;;;;;;;;;;;5036017;28;20050;-21
2023/05/11 05:22:04;;;;;;;;;;;;;;;;;;5037774;28;19909;-21
2023/05/11 05:24:30;;;;;;;;;;;;;;;;;;5037854;28;19920;-21
2023/05/11 05:26:56;;;;;;;;;;;;;;;;;;5037492;28;19910;-20
2023/05/11 05:29:22;;;;;;;;;;;;;;;;;;5036223;28;19913;-22
2023/05/11 05:31:48;;;;;;;;;;;;;;;;;;5037383;28;19913;-21
2023/05/11 05:34:14;;;;;;;;;;;;;;;;;;5037375;28;19913;-21
2023/05/11 05:36:40;;;;;;;;;;;;;;;;;;5036089;28;19966;-22
2023/05/11 05:39:10;;;;;;;;;;;;;;;;;;5037321;28;20247;-20
2023/05/11 05:41:36;;;;;;;;;;;;;;;;;;5037529;28;19963;-23
2023/05/11 05:44:02;;;;;;;;;;;;;;;;;;5037337;28;19909;-22
2023/05/11 05:46:28;;;;;;;;;;;;;;;;;;5037299;28;19996;-22
2023/05/11 05:48:55;;;;;;;;;;;;;;;;;;5036007;28;20255;-20
2023/05/11 05:51:21;;;;;;;;;;;;;;;;;;5037588;28;19909;-20
2023/05/11 05:53:47;;;;;;;;;;;;;;;;;;5037338;28;20024;-21
2023/05/11 05:56:13;;;;;;;;;;;;;;;;;;5037621;28;19924;-22
2023/05/11 05:58:39;;;;;;;;;;;;;;;;;;5037031;28;20003;-22
2023/05/11 06:01:05;;;;;;;;;;;;;;;;;;5037315;28;19913;-21
2023/05/11 06:03:31;;;;;;;;;;;;;;;;;;5036861;28;19921;-19
2023/05/11 06:05:57;;;;;;;;;;;;;;;;;;5037115;28;19915;-22
2023/05/11 06:08:23;;;;;;;;;;;;;;;;;;5036850;28;19913;-22
2023/05/11 06:10:49;;;;;;;;;;;;;;;;;;5036826;28;20288;-28
2023/05/11 06:13:15;;;;;;;;;;;;;;;;;;5035757;28;20374;-22
2023/05/11 06:15:41;;;;;;;;;;;;;;;;;;5035400;28;19909;-20
2023/05/11 06:18:07;;;;;;;;;;;;;;;;;;5035211;28;19923;-22
2023/05/11 06:20:33;;;;;;;;;;;;;;;;;;5035191;28;19916;-21
2023/05/11 06:22:59;;;;;;;;;;;;;;;;;;5036445;28;20191;-22
2023/05/11 06:25:26;;;;;;;;;;;;;;;;;;5036508;28;19909;-21
2023/05/11 06:27:52;;;;;;;;;;;;;;;;;;5035140;28;19967;-22
2023/05/11 06:30:18;;;;;;;;;;;;;;;;;;5035397;28;20014;-21
2023/05/11 06:32:44;;;;;;;;;;;;;;;;;;5035790;28;19913;-21
2023/05/11 06:35:10;;;;;;;;;;;;;;;;;;5036043;28;20252;-23
2023/05/11 06:37:36;;;;;;;;;;;;;;;;;;5036356;28;19924;-21
2023/05/11 06:40:02;;;;;;;;;;;;;;;;;;5036479;28;19936;-21
2023/05/11 06:42:28;;;;;;;;;;;;;;;;;;5035329;28;20047;-20
2023/05/11 06:44:54;;;;;;;;;;;;;;;;;;5036568;28;20249;-20
2023/05/11 06:47:20;;;;;;;;;;;;;;;;;;5035086;28;19980;-22
2023/05/11 06:49:47;;;;;;;;;;;;;;;;;;5036176;28;19917;-22
2023/05/11 06:52:13;;;;;;;;;;;;;;;;;;5035834;28;19909;-20
2023/05/11 06:54:38;;;;;;;;;;;;;;;;;;5035945;28;19935;-20
2023/05/11 06:57:04;;;;;;;;;;;;;;;;;;5035874;28;19913;-22
2023/05/11 06:59:31;;;;;;;;;;;;;;;;;;5036174;28;19974;-21
2023/05/11 07:01:57;;;;;;;;;;;;;;;;;;5035757;28;19909;-22
2023/05/11 07:04:23;;;;;;;;;;;;;;;;;;5035697;28;19928;-20
2023/05/11 07:06:49;;;;;;;;;;;;;;;;;;5035710;28;19943;-21
2023/05/11 07:09:15;;;;;;;;;;;;;;;;;;5035770;28;19913;-22
2023/05/11 07:11:41;;;;;;;;;;;;;;;;;;5034583;28;19995;-20
2023/05/11 07:14:07;;;;;;;;;;;;;;;;;;5035433;28;19920;-23
2023/05/11 07:16:36;;;;;;;;;;;;;;;;;;5035654;28;19979;-21
2023/05/11 07:19:02;;;;;;;;;;;;;;;;;;5035505;28;19913;-21
2023/05/11 07:21:28;;;;;;;;;;;;;;;;;;5035365;28;20182;-22
2023/05/11 07:23:54;;;;;;;;;;;;;;;;;;5034205;28;19999;-21
2023/05/11 07:26:20;;;;;;;;;;;;;;;;;;5035428;28;19909;-21
2023/05/11 07:28:46;;;;;;;;;;;;;;;;;;5035354;28;20004;-22
2023/05/11 07:31:12;;;;;;;;;;;;;;;;;;5034111;28;19964;-20
2023/05/11 07:33:38;;;;;;;;;;;;;;;;;;5035275;28;19980;-23
2023/05/11 07:36:04;;;;;;;;;;;;;;;;;;5035446;28;20370;-23
2023/05/11 07:38:30;;;;;;;;;;;;;;;;;;5035500;28;19961;-21
2023/05/11 07:40:56;;;;;;;;;;;;;;;;;;5035278;28;20434;-25
2023/05/11 07:43:22;;;;;;;;;;;;;;;;;;5034006;28;19909;-22
2023/05/11 07:45:48;;;;;;;;;;;;;;;;;;5035351;28;19913;-22
2023/05/11 07:48:14;;;;;;;;;;;;;;;;;;5035229;28;19928;-20
2023/05/11 07:50:41;;;;;;;;;;;;;;;;;;5035330;28;20004;-22
2023/05/11 07:53:07;;;;;;;;;;;;;;;;;;5034955;28;19916;-21
2023/05/11 07:55:33;;;;;;;;;;;;;;;;;;5035054;28;19909;-21
2023/05/11 07:57:59;;;;;;;;;;;;;;;;;;5034582;28;19995;-21
2023/05/11 08:00:25;;;;;;;;;;;;;;;;;;5034772;28;20347;-21
2023/05/11 08:02:51;;;;;;;;;;;;;;;;;;5034531;28;20338;-22
2023/05/11 08:05:18;;;;;;;;;;;;;;;;;;5034898;28;19909;-21
2023/05/11 08:07:44;;;;;;;;;;;;;;;;;;5034481;28;19963;-27
2023/05/11 08:10:10;;;;;;;;;;;;;;;;;;5033379;28;19936;-21
2023/05/11 08:12:36;;;;;;;;;;;;;;;;;;5034402;28;20007;-21
2023/05/11 08:15:02;;;;;;;;;;;;;;;;;;5034690;28;20059;-21
2023/05/11 08:17:29;;;;;;;;;;;;;;;;;;5034111;28;20284;-23
2023/05/11 08:19:55;;;;;;;;;;;;;;;;;;5034416;28;20352;-21
2023/05/11 08:22:21;;;;;;;;;;;;;;;;;;5034311;28;19948;-21
2023/05/11 08:24:47;;;;;;;;;;;;;;;;;;5034456;28;19909;-21
2023/05/11 08:27:14;;;;;;;;;;;;;;;;;;5034372;28;19956;-21
2023/05/11 08:29:40;;;;;;;;;;;;;;;;;;5034463;28;19912;-24
2023/05/11 08:32:06;;;;;;;;;;;;;;;;;;5034881;28;19920;-22
2023/05/11 08:34:32;;;;;;;;;;;;;;;;;;5033299;28;19909;-21
2023/05/11 08:37:00;;;;;;;;;;;;;;;;;;5034336;28;19909;-20
2023/05/11 08:39:26;;;;;;;;;;;;;;;;;;5033974;28;20379;-21
2023/05/11 08:41:52;;;;;;;;;;;;;;;;;;5033975;28;20324;-21
2023/05/11 08:44:18;;;;;;;;;;;;;;;;;;5034021;28;19910;-20
2023/05/11 08:46:44;;;;;;;;;;;;;;;;;;5033539;28;19919;-21
2023/05/11 08:49:10;;;;;;;;;;;;;;;;;;5033688;28;20322;-21
2023/05/11 08:51:36;;;;;;;;;;;;;;;;;;5033494;28;19944;-20
2023/05/11 08:54:03;;;;;;;;;;;;;;;;;;5032864;28;19909;-23
2023/05/11 08:56:29;;;;;;;;;;;;;;;;;;5034391;28;19913;-21
2023/05/11 08:58:58;;;;;;;;;;;;;;;;;;5033518;28;19960;-20
2023/05/11 09:01:24;;;;;;;;;;;;;;;;;;5033653;28;19982;-22
2023/05/11 09:03:50;;;;;;;;;;;;;;;;;;5032114;28;20204;-20
2023/05/11 09:06:16;;;;;;;;;;;;;;;;;;5033635;28;19932;-20
2023/05/11 09:08:42;;;;;;;;;;;;;;;;;;5032318;28;19913;-22
2023/05/11 09:11:08;;;;;;;;;;;;;;;;;;5033759;28;19917;-21
2023/05/11 09:13:34;;;;;;;;;;;;;;;;;;5032244;28;19935;-21
2023/05/11 09:16:00;;;;;;;;;;;;;;;;;;5032336;28;19913;-21
2023/05/11 09:18:26;;;;;;;;;;;;;;;;;;5033381;28;19909;-21
2023/05/11 09:20:52;;;;;;;;;;;;;;;;;;5033645;28;19909;-21
2023/05/11 09:23:18;;;;;;;;;;;;;;;;;;5033727;28;19909;-22
2023/05/11 09:25:44;;;;;;;;;;;;;;;;;;5033482;28;20007;-22
2023/05/11 09:28:10;;;;;;;;;;;;;;;;;;5032686;28;19913;-20
2023/05/11 09:30:36;;;;;;;;;;;;;;;;;;5033866;28;19939;-20
2023/05/11 09:33:02;;;;;;;;;;;;;;;;;;5033811;28;20007;-24
2023/05/11 09:35:28;;;;;;;;;;;;;;;;;;5033859;28;19971;-22
2023/05/11 09:37:54;;;;;;;;;;;;;;;;;;5034083;28;19967;-20
2023/05/11 09:40:20;;;;;;;;;;;;;;;;;;5033610;28;20297;-20
2023/05/11 09:42:46;;;;;;;;;;;;;;;;;;5033933;28;19910;-21
2023/05/11 09:45:12;;;;;;;;;;;;;;;;;;5033597;28;19910;-22
2023/05/11 09:47:38;;;;;;;;;;;;;;;;;;5033689;28;20331;-22
2023/05/11 09:50:04;;;;;;;;;;;;;;;;;;5033516;28;20039;-21
2023/05/11 09:52:30;;;;;;;;;;;;;;;;;;5033298;28;20032;-32
2023/05/11 09:54:56;;;;;;;;;;;;;;;;;;5033327;28;19909;-21
2023/05/11 09:57:22;;;;;;;;;;;;;;;;;;5033283;28;19920;-21
2023/05/11 09:59:48;;;;;;;;;;;;;;;;;;5033517;28;19909;-26
2023/05/11 10:02:14;;;;;;;;;;;;;;;;;;5033652;28;19928;-23
2023/05/11 10:04:41;;;;;;;;;;;;;;;;;;5033402;28;19921;-21
2023/05/11 10:07:07;;;;;;;;;;;;;;;;;;5036916;28;19909;-21
2023/05/11 10:09:32;;;;;;;;;;;;;;;;;;5035826;28;19924;-22
2023/05/11 10:11:58;;;;;;;;;;;;;;;;;;5035966;28;20011;-22
2023/05/11 10:14:24;;;;;;;;;;;;;;;;;;5036930;28;19917;-23
2023/05/11 10:16:50;;;;;;;;;;;;;;;;;;5036800;28;19916;-21
2023/05/11 10:19:16;;;;;;;;;;;;;;;;;;5036613;28;19909;-21
2023/05/11 10:21:42;;;;;;;;;;;;;;;;;;5036436;28;20047;-21
2023/05/11 10:24:08;;;;;;;;;;;;;;;;;;5036920;28;19910;-20
2023/05/11 10:26:34;;;;;;;;;;;;;;;;;;5036564;28;19921;-22
2023/05/11 10:29:00;;;;;;;;;;;;;;;;;;5036659;28;20263;-20
2023/05/11 10:31:26;;;;;;;;;;;;;;;;;;5036706;28;19909;-20
2023/05/11 10:33:52;;;;;;;;;;;;;;;;;;5036392;28;19909;-20
2023/05/11 10:36:20;;;;;;;;;;;;;;;;;;5036375;28;19909;-21
2023/05/11 10:38:46;;;;;;;;;;;;;;;;;;5036351;28;19920;-21
2023/05/11 10:41:12;;;;;;;;;;;;;;;;;;5036251;28;19909;-23
2023/05/11 10:43:38;;;;;;;;;;;;;;;;;;5036217;28;20011;-23
2023/05/11 10:46:04;;;;;;;;;;;;;;;;;;5036571;28;20339;-22
2023/05/11 10:48:30;;;;;;;;;;;;;;;;;;5036094;28;19987;-20
2023/05/11 10:50:56;;;;;;;;;;;;;;;;;;5036316;28;20320;-21
2023/05/11 10:53:22;;;;;;;;;;;;;;;;;;5036205;28;19909;-21
2023/05/11 10:55:48;;;;;;;;;;;;;;;;;;5035161;28;19923;-22
2023/05/11 10:58:14;;;;;;;;;;;;;;;;;;5036344;28;19913;-23
2023/05/11 11:00:42;;;;;;;;;;;;;;;;;;5034923;28;19928;-21
2023/05/11 11:03:08;;;;;;;;;;;;;;;;;;5035427;28;20012;-22
2023/05/11 11:05:34;;;;;;;;;;;;;;;;;;5034573;28;19988;-21
2023/05/11 11:08:02;;;;;;;;;;;;;;;;;;5035872;28;19913;-21
2023/05/11 11:10:28;;;;;;;;;;;;;;;;;;5035666;28;20023;-21
2023/05/11 11:12:55;;;;;;;;;;;;;;;;;;5035534;28;20340;-20
2023/05/11 11:15:21;;;;;;;;;;;;;;;;;;5035705;28;20277;-20
2023/05/11 11:17:46;;;;;;;;;;;;;;;;;;5034750;28;19936;-22
2023/05/11 11:20:12;;;;;;;;;;;;;;;;;;5035403;28;20260;-22
2023/05/11 11:22:40;;;;;;;;;;;;;;;;;;5034788;28;20372;-21
2023/05/11 11:25:06;;;;;;;;;;;;;;;;;;5034604;28;19974;-21
2023/05/11 11:27:32;;;;;;;;;;;;;;;;;;5035813;28;19936;-21
2023/05/11 11:29:58;;;;;;;;;;;;;;;;;;5035529;28;20323;-19
2023/05/11 11:32:24;;;;;;;;;;;;;;;;;;5035330;28;20302;-22
2023/05/11 11:34:50;;;;;;;;;;;;;;;;;;5035484;28;19974;-21
2023/05/11 11:37:21;;;;;;;;;;;;;;;;;;5034683;28;20137;-20
2023/05/11 11:39:48;;;;;;;;;;;;;;;;;;5034307;28;19975;-20
2023/05/11 11:42:14;;;;;;;;;;;;;;;;;;5035449;28;19951;-21
2023/05/11 11:44:40;;;;;;;;;;;;;;;;;;5035403;28;19963;-22
2023/05/11 11:47:06;;;;;;;;;;;;;;;;;;5035190;28;19905;-21
2023/05/11 11:49:32;;;;;;;;;;;;;;;;;;5035430;28;20011;-21
2023/05/11 11:51:58;;;;;;;;;;;;;;;;;;5035518;28;19910;-22
2023/05/11 11:54:24;;;;;;;;;;;;;;;;;;5035056;28;19936;-20
2023/05/11 11:56:50;;;;;;;;;;;;;;;;;;5035468;28;19909;-20
2023/05/11 11:59:17;;;;;;;;;;;;;;;;;;5034930;28;19909;-20
2023/05/11 12:01:43;;;;;;;;;;;;;;;;;;5035058;28;19973;-23
2023/05/11 12:04:09;;;;;;;;;;;;;;;;;;5034864;28;19921;-22
2023/05/11 12:06:35;;;;;;;;;;;;;;;;;;5034959;28;19920;-21
2023/05/11 12:09:03;;;;;;;;;;;;;;;;;;5033610;28;19928;-21
2023/05/11 12:11:29;;;;;;;;;;;;;;;;;;5035068;28;20174;-22
2023/05/11 12:13:55;;;;;;;;;;;;;;;;;;5034587;28;19964;-20
2023/05/11 12:16:21;;;;;;;;;;;;;;;;;;5034858;28;19912;-21
2023/05/11 12:18:47;;;;;;;;;;;;;;;;;;5034926;28;19941;-25
2023/05/11 12:21:13;;;;;;;;;;;;;;;;;;5034957;28;19931;-24
2023/05/11 12:23:39;;;;;;;;;;;;;;;;;;5034356;28;19916;-22
2023/05/11 12:26:05;;;;;;;;;;;;;;;;;;5034820;28;20003;-21
2023/05/11 12:28:31;;;;;;;;;;;;;;;;;;5033712;28;19987;-20
2023/05/11 12:30:57;;;;;;;;;;;;;;;;;;5034154;28;19929;-22
2023/05/11 12:33:23;;;;;;;;;;;;;;;;;;5034749;28;19909;-22
2023/05/11 12:35:49;;;;;;;;;;;;;;;;;;5034518;28;19999;-23
2023/05/11 12:38:15;;;;;;;;;;;;;;;;;;5034515;28;19909;-21
2023/05/11 12:40:41;;;;;;;;;;;;;;;;;;5034673;28;19941;-20
2023/05/11 12:43:07;;;;;;;;;;;;;;;;;;5034317;28;20047;-21
2023/05/11 12:45:33;;;;;;;;;;;;;;;;;;5034153;28;19916;-23
2023/05/11 12:47:59;;;;;;;;;;;;;;;;;;5032975;28;20000;-21
2023/05/11 12:50:25;;;;;;;;;;;;;;;;;;5034304;28;20254;-22
2023/05/11 12:52:51;;;;;;;;;;;;;;;;;;5032848;28;19916;-21
2023/05/11 12:55:17;;;;;;;;;;;;;;;;;;5034198;28;19909;-21
2023/05/11 12:57:43;;;;;;;;;;;;;;;;;;5033899;28;20251;-20
2023/05/11 13:00:10;;;;;;;;;;;;;;;;;;5034190;28;19909;-22
2023/05/11 13:02:36;;;;;;;;;;;;;;;;;;5033924;28;19909;-22
2023/05/11 13:05:02;;;;;;;;;;;;;;;;;;5034158;28;19910;-20
2023/05/11 13:07:28;;;;;;;;;;;;;;;;;;5034037;28;19909;-22
2023/05/11 13:09:54;;;;;;;;;;;;;;;;;;5032912;28;20356;-21
2023/05/11 13:12:20;;;;;;;;;;;;;;;;;;5032879;28;19920;-21
2023/05/11 13:14:46;;;;;;;;;;;;;;;;;;5032860;28;20264;-22
2023/05/11 13:17:12;;;;;;;;;;;;;;;;;;5034160;28;19909;-23
2023/05/11 13:19:38;;;;;;;;;;;;;;;;;;5033985;28;19916;-22
2023/05/11 13:22:05;;;;;;;;;;;;;;;;;;5034170;28;19927;-21
2023/05/11 13:24:31;;;;;;;;;;;;;;;;;;5034010;28;19987;-21
2023/05/11 13:26:57;;;;;;;;;;;;;;;;;;5033906;28;19909;-20
2023/05/11 13:29:23;;;;;;;;;;;;;;;;;;5033795;28;20232;-21
2023/05/11 13:31:49;;;;;;;;;;;;;;;;;;5033332;28;19913;-22
2023/05/11 13:34:15;;;;;;;;;;;;;;;;;;5033889;28;19913;-20
2023/05/11 13:36:41;;;;;;;;;;;;;;;;;;5033736;28;19932;-22
2023/05/11 13:39:07;;;;;;;;;;;;;;;;;;5034055;28;20224;-20
2023/05/11 13:41:33;;;;;;;;;;;;;;;;;;5036981;28;19916;-21
2023/05/11 13:43:59;;;;;;;;;;;;;;;;;;5037506;28;20351;-21
2023/05/11 13:46:25;;;;;;;;;;;;;;;;;;5037544;28;19920;-21
2023/05/11 13:48:53;;;;;;;;;;;;;;;;;;5037202;28;19913;-20
2023/05/11 13:51:19;;;;;;;;;;;;;;;;;;5037338;28;19919;-21
2023/05/11 13:53:45;;;;;;;;;;;;;;;;;;5037037;28;19920;-21
2023/05/11 13:56:11;;;;;;;;;;;;;;;;;;5037274;28;19909;-21
2023/05/11 13:58:37;;;;;;;;;;;;;;;;;;5037249;28;20245;-20
2023/05/11 14:01:03;;;;;;;;;;;;;;;;;;5037355;28;19909;-20
2023/05/11 14:03:30;;;;;;;;;;;;;;;;;;5036795;28;19964;-21
2023/05/11 14:05:56;;;;;;;;;;;;;;;;;;5036803;28;19909;-23
2023/05/11 14:08:22;;;;;;;;;;;;;;;;;;5035642;28;19971;-21
2023/05/11 14:10:48;;;;;;;;;;;;;;;;;;5036960;28;19920;-22
2023/05/11 14:13:14;;;;;;;;;;;;;;;;;;5036460;28;19920;-21
2023/05/11 14:15:40;;;;;;;;;;;;;;;;;;5036830;28;19932;-21
2023/05/11 14:18:06;;;;;;;;;;;;;;;;;;5036969;28;19909;-23
2023/05/11 14:20:32;;;;;;;;;;;;;;;;;;5036669;28;19925;-21
2023/05/11 14:22:58;;;;;;;;;;;;;;;;;;5036511;28;20012;-21
2023/05/11 14:25:24;;;;;;;;;;;;;;;;;;5036670;28;19913;-21
2023/05/11 14:27:53;;;;;;;;;;;;;;;;;;5035593;28;19909;-21
2023/05/11 14:30:19;;;;;;;;;;;;;;;;;;5036585;28;19917;-21
2023/05/11 14:32:45;;;;;;;;;;;;;;;;;;5035393;28;19924;-21
2023/05/11 14:35:11;;;;;;;;;;;;;;;;;;5036309;28;19917;-21
2023/05/11 14:37:38;;;;;;;;;;;;;;;;;;5036682;28;19909;-20
2023/05/11 14:40:03;;;;;;;;;;;;;;;;;;5036578;28;19936;-20
2023/05/11 14:42:30;;;;;;;;;;;;;;;;;;5036448;28;20278;-21
2023/05/11 14:44:55;;;;;;;;;;;;;;;;;;5036147;28;19909;-23
2023/05/11 14:47:21;;;;;;;;;;;;;;;;;;5036386;28;19909;-21
2023/05/11 14:49:47;;;;;;;;;;;;;;;;;;5036326;28;20353;-21
2023/05/11 14:52:13;;;;;;;;;;;;;;;;;;5034948;28;19932;-20
2023/05/11 14:54:39;;;;;;;;;;;;;;;;;;5036067;28;19940;-20
2023/05/11 14:57:05;;;;;;;;;;;;;;;;;;5036171;28;19909;-23
2023/05/11 14:59:31;;;;;;;;;;;;;;;;;;5035848;28;20003;-22
2023/05/11 15:01:57;;;;;;;;;;;;;;;;;;5034827;28;19909;-21
2023/05/11 15:04:23;;;;;;;;;;;;;;;;;;5035867;28;19921;-21
2023/05/11 15:06:49;;;;;;;;;;;;;;;;;;5035764;28;20252;-22
2023/05/11 15:09:15;;;;;;;;;;;;;;;;;;5034503;28;19913;-22
2023/05/11 15:11:41;;;;;;;;;;;;;;;;;;5035472;28;19920;-21
2023/05/11 15:14:07;;;;;;;;;;;;;;;;;;5034971;28;19909;-22
2023/05/11 15:16:33;;;;;;;;;;;;;;;;;;5034825;28;19920;-21
2023/05/11 15:18:59;;;;;;;;;;;;;;;;;;5034926;28;20393;-20
2023/05/11 15:21:25;;;;;;;;;;;;;;;;;;5033741;28;19909;-22
2023/05/11 15:23:51;;;;;;;;;;;;;;;;;;5034886;28;19909;-20
2023/05/11 15:26:17;;;;;;;;;;;;;;;;;;5033730;28;19932;-20
2023/05/11 15:28:43;;;;;;;;;;;;;;;;;;5033571;28;20020;-22
2023/05/11 15:31:09;;;;;;;;;;;;;;;;;;5034921;28;19909;-21
2023/05/11 15:33:35;;;;;;;;;;;;;;;;;;5035107;28;19983;-20
2023/05/11 15:36:01;;;;;;;;;;;;;;;;;;5034775;28;20296;-21
2023/05/11 15:38:27;;;;;;;;;;;;;;;;;;5035143;28;19920;-22
2023/05/11 15:40:53;;;;;;;;;;;;;;;;;;5035489;28;20039;-22
2023/05/11 15:43:19;;;;;;;;;;;;;;;;;;5035391;28;19929;-21
2023/05/11 15:45:45;;;;;;;;;;;;;;;;;;5035605;28;19920;-20
2023/05/11 15:48:11;;;;;;;;;;;;;;;;;;5034967;28;19943;-20
2023/05/11 15:50:37;;;;;;;;;;;;;;;;;;5035202;28;19920;-21
2023/05/11 15:53:03;;;;;;;;;;;;;;;;;;5035141;28;19908;-21
2023/05/11 15:55:29;;;;;;;;;;;;;;;;;;5035235;28;19920;-21
2023/05/11 15:57:55;;;;;;;;;;;;;;;;;;5035262;28;19921;-20
2023/05/11 16:00:21;;;;;;;;;;;;;;;;;;5035148;28;19936;-20
2023/05/11 16:02:47;;;;;;;;;;;;;;;;;;5034896;28;19921;-22
2023/05/11 16:05:13;;;;;;;;;;;;;;;;;;5035249;28;19916;-22
2023/05/11 16:07:39;;;;;;;;;;;;;;;;;;5034925;28;19917;-22
2023/05/11 16:10:06;;;;;;;;;;;;;;;;;;5035048;28;19960;-21
2023/05/11 16:12:31;;;;;;;;;;;;;;;;;;5034820;28;19909;-20
2023/05/11 16:14:57;;;;;;;;;;;;;;;;;;5034763;28;19909;-23
2023/05/11 16:17:24;;;;;;;;;;;;;;;;;;5034984;28;20217;-22
2023/05/11 16:19:50;;;;;;;;;;;;;;;;;;5034717;28;19920;-23
2023/05/11 16:22:16;;;;;;;;;;;;;;;;;;5034716;28;19909;-21
2023/05/11 16:24:42;;;;;;;;;;;;;;;;;;5035073;28;19966;-23
2023/05/11 16:27:08;;;;;;;;;;;;;;;;;;5034595;28;20346;-23
2023/05/11 16:29:34;;;;;;;;;;;;;;;;;;5034499;28;19920;-22
2023/05/11 16:32:00;;;;;;;;;;;;;;;;;;5034641;28;19936;-21
2023/05/11 16:34:26;;;;;;;;;;;;;;;;;;5034438;28;20025;-22
2023/05/11 16:36:52;;;;;;;;;;;;;;;;;;5034444;28;19928;-21
2023/05/11 16:39:18;;;;;;;;;;;;;;;;;;5034317;28;19963;-21